sensor_id;sensor_type;location;lat;lon;timestamp;temperature;humidity
26336;DHT22;14047;50.936;4.654;2023-05-14T00:00:55;14.10;99.90
26336;DHT22;14047;50.936;4.654;2023-05-14T00:03:21;14.20;99.90
26336;DHT22;14047;50.936;4.654;2023-05-14T00:05:50;14.20;99.90
26336;DHT22;14047;50.936;4.654;2023-05-14T00:08:16;14.30;99.90
26336;DHT22;14047;50.936;4.654;2023-05-14T00:10:42;14.30;99.90
26336;DHT22;14047;50.936;4.654;2023-05-14T00:13:08;14.40;99.90
26336;DHT22;14047;50.936;4.654;2023-05-14T00:15:34;14.50;99.90
26336;DHT22;14047;50.936;4.654;2023-05-14T00:18:00;14.50;99.90
26336;DHT22;14047;50.936;4.654;2023-05-14T00:20:26;14.50;99.90
26336;DHT22;14047;50.936;4.654;2023-05-14T00:22:52;14.50;99.90
26336;DHT22;14047;50.936;4.654;2023-05-14T00:25:18;14.60;99.90
26336;DHT22;14047;50.936;4.654;2023-05-14T00:27:44;14.50;99.90
26336;DHT22;14047;50.936;4.654;2023-05-14T00:30:10;14.40;99.90
26336;DHT22;14047;50.936;4.654;2023-05-14T00:32:36;14.30;99.90
26336;DHT22;14047;50.936;4.654;2023-05-14T00:35:02;14.20;99.90
26336;DHT22;14047;50.936;4.654;2023-05-14T00:37:29;14.20;99.90
26336;DHT22;14047;50.936;4.654;2023-05-14T00:39:55;14.00;99.90
26336;DHT22;14047;50.936;4.654;2023-05-14T00:42:21;13.80;99.90
26336;DHT22;14047;50.936;4.654;2023-05-14T00:44:47;13.90;99.90
26336;DHT22;14047;50.936;4.654;2023-05-14T00:47:13;13.90;99.90
26336;DHT22;14047;50.936;4.654;2023-05-14T00:49:40;13.70;99.90
26336;DHT22;14047;50.936;4.654;2023-05-14T00:52:06;13.60;99.90
26336;DHT22;14047;50.936;4.654;2023-05-14T00:54:33;13.70;99.90
26336;DHT22;14047;50.936;4.654;2023-05-14T00:57:01;13.70;99.90
26336;DHT22;14047;50.936;4.654;2023-05-14T00:59:27;13.60;99.90
26336;DHT22;14047;50.936;4.654;2023-05-14T01:01:53;13.70;99.90
26336;DHT22;14047;50.936;4.654;2023-05-14T01:04:19;13.60;99.90
26336;DHT22;14047;50.936;4.654;2023-05-14T01:12:22;13.50;99.90
26336;DHT22;14047;50.936;4.654;2023-05-14T01:17:21;13.40;99.90
26336;DHT22;14047;50.936;4.654;2023-05-14T01:19:50;13.40;99.90
26336;DHT22;14047;50.936;4.654;2023-05-14T01:22:17;13.40;99.90
26336;DHT22;14047;50.936;4.654;2023-05-14T01:24:43;13.50;99.90
26336;DHT22;14047;50.936;4.654;2023-05-14T01:30:08;13.30;99.90
26336;DHT22;14047;50.936;4.654;2023-05-14T01:32:38;13.30;99.90
26336;DHT22;14047;50.936;4.654;2023-05-14T01:35:06;13.20;99.90
26336;DHT22;14047;50.936;4.654;2023-05-14T01:37:33;13.00;99.90
26336;DHT22;14047;50.936;4.654;2023-05-14T01:40:01;13.00;99.90
26336;DHT22;14047;50.936;4.654;2023-05-14T01:42:27;12.90;99.90
26336;DHT22;14047;50.936;4.654;2023-05-14T01:44:54;13.00;99.90
26336;DHT22;14047;50.936;4.654;2023-05-14T01:47:20;13.00;99.90
26336;DHT22;14047;50.936;4.654;2023-05-14T01:49:47;13.10;99.90
26336;DHT22;14047;50.936;4.654;2023-05-14T01:52:13;13.10;99.90
26336;DHT22;14047;50.936;4.654;2023-05-14T01:54:39;13.20;99.90
26336;DHT22;14047;50.936;4.654;2023-05-14T01:57:05;13.10;99.90
26336;DHT22;14047;50.936;4.654;2023-05-14T01:59:31;13.20;99.90
26336;DHT22;14047;50.936;4.654;2023-05-14T02:01:57;13.10;99.90
26336;DHT22;14047;50.936;4.654;2023-05-14T02:04:23;12.90;99.90
26336;DHT22;14047;50.936;4.654;2023-05-14T02:06:49;12.90;99.90
26336;DHT22;14047;50.936;4.654;2023-05-14T02:09:15;12.90;99.90
26336;DHT22;14047;50.936;4.654;2023-05-14T02:11:41;13.00;99.90
26336;DHT22;14047;50.936;4.654;2023-05-14T02:14:14;13.10;99.90
26336;DHT22;14047;50.936;4.654;2023-05-14T02:16:40;13.10;99.90
26336;DHT22;14047;50.936;4.654;2023-05-14T02:19:06;13.10;99.90
26336;DHT22;14047;50.936;4.654;2023-05-14T02:21:32;13.00;99.90
26336;DHT22;14047;50.936;4.654;2023-05-14T02:23:58;13.00;99.90
26336;DHT22;14047;50.936;4.654;2023-05-14T02:26:24;12.90;99.90
26336;DHT22;14047;50.936;4.654;2023-05-14T02:28:50;12.90;99.90
26336;DHT22;14047;50.936;4.654;2023-05-14T02:31:17;13.00;99.90
26336;DHT22;14047;50.936;4.654;2023-05-14T02:33:44;13.00;99.90
26336;DHT22;14047;50.936;4.654;2023-05-14T02:36:10;12.90;99.90
26336;DHT22;14047;50.936;4.654;2023-05-14T02:38:36;13.00;99.90
26336;DHT22;14047;50.936;4.654;2023-05-14T02:41:02;13.10;99.90
26336;DHT22;14047;50.936;4.654;2023-05-14T02:43:28;13.20;99.90
26336;DHT22;14047;50.936;4.654;2023-05-14T02:45:54;13.20;99.90
26336;DHT22;14047;50.936;4.654;2023-05-14T02:48:20;13.20;99.90
26336;DHT22;14047;50.936;4.654;2023-05-14T02:50:48;13.10;99.90
26336;DHT22;14047;50.936;4.654;2023-05-14T02:53:14;13.10;99.90
26336;DHT22;14047;50.936;4.654;2023-05-14T02:55:40;13.20;99.90
26336;DHT22;14047;50.936;4.654;2023-05-14T02:58:06;13.20;99.90
26336;DHT22;14047;50.936;4.654;2023-05-14T03:00:32;13.10;99.90
26336;DHT22;14047;50.936;4.654;2023-05-14T03:02:58;13.20;99.90
26336;DHT22;14047;50.936;4.654;2023-05-14T03:05:24;13.20;99.90
26336;DHT22;14047;50.936;4.654;2023-05-14T03:07:50;13.10;99.90
26336;DHT22;14047;50.936;4.654;2023-05-14T03:10:16;13.00;99.90
26336;DHT22;14047;50.936;4.654;2023-05-14T03:12:42;12.90;99.90
26336;DHT22;14047;50.936;4.654;2023-05-14T03:15:08;12.90;99.90
26336;DHT22;14047;50.936;4.654;2023-05-14T03:17:34;12.90;99.90
26336;DHT22;14047;50.936;4.654;2023-05-14T03:20:00;13.00;99.90
26336;DHT22;14047;50.936;4.654;2023-05-14T03:22:26;13.00;99.90
26336;DHT22;14047;50.936;4.654;2023-05-14T03:24:52;13.00;99.90
26336;DHT22;14047;50.936;4.654;2023-05-14T03:27:18;13.10;99.90
26336;DHT22;14047;50.936;4.654;2023-05-14T03:29:44;13.10;99.90
26336;DHT22;14047;50.936;4.654;2023-05-14T03:32:10;13.10;99.90
26336;DHT22;14047;50.936;4.654;2023-05-14T03:34:36;13.00;99.90
26336;DHT22;14047;50.936;4.654;2023-05-14T03:37:02;13.00;99.90
26336;DHT22;14047;50.936;4.654;2023-05-14T03:39:28;13.00;99.90
26336;DHT22;14047;50.936;4.654;2023-05-14T03:41:55;13.00;99.90
26336;DHT22;14047;50.936;4.654;2023-05-14T03:44:24;13.10;99.90
26336;DHT22;14047;50.936;4.654;2023-05-14T03:46:50;13.20;99.90
26336;DHT22;14047;50.936;4.654;2023-05-14T03:49:16;13.30;99.90
26336;DHT22;14047;50.936;4.654;2023-05-14T03:51:42;13.40;99.90
26336;DHT22;14047;50.936;4.654;2023-05-14T03:54:08;13.40;99.90
26336;DHT22;14047;50.936;4.654;2023-05-14T03:56:34;13.50;99.90
26336;DHT22;14047;50.936;4.654;2023-05-14T03:59:02;13.50;99.90
26336;DHT22;14047;50.936;4.654;2023-05-14T04:01:28;13.50;99.90
26336;DHT22;14047;50.936;4.654;2023-05-14T04:03:53;13.30;99.90
26336;DHT22;14047;50.936;4.654;2023-05-14T04:06:20;13.10;99.90
26336;DHT22;14047;50.936;4.654;2023-05-14T04:08:46;13.20;99.90
26336;DHT22;14047;50.936;4.654;2023-05-14T04:11:11;13.20;99.90
26336;DHT22;14047;50.936;4.654;2023-05-14T04:13:37;13.10;99.90
26336;DHT22;14047;50.936;4.654;2023-05-14T04:16:03;13.10;99.90
26336;DHT22;14047;50.936;4.654;2023-05-14T04:18:29;13.10;99.90
26336;DHT22;14047;50.936;4.654;2023-05-14T04:21:00;13.20;99.90
26336;DHT22;14047;50.936;4.654;2023-05-14T04:23:29;13.30;99.90
26336;DHT22;14047;50.936;4.654;2023-05-14T04:25:57;13.30;99.90
26336;DHT22;14047;50.936;4.654;2023-05-14T04:28:23;13.50;99.90
26336;DHT22;14047;50.936;4.654;2023-05-14T04:30:49;13.40;99.90
26336;DHT22;14047;50.936;4.654;2023-05-14T04:33:15;13.40;99.90
26336;DHT22;14047;50.936;4.654;2023-05-14T04:35:43;13.40;99.90
26336;DHT22;14047;50.936;4.654;2023-05-14T04:38:10;13.40;99.90
26336;DHT22;14047;50.936;4.654;2023-05-14T04:40:37;13.30;99.90
26336;DHT22;14047;50.936;4.654;2023-05-14T04:43:03;13.30;99.90
26336;DHT22;14047;50.936;4.654;2023-05-14T04:45:29;13.30;99.90
26336;DHT22;14047;50.936;4.654;2023-05-14T04:47:55;13.40;99.90
26336;DHT22;14047;50.936;4.654;2023-05-14T04:50:21;13.50;99.90
26336;DHT22;14047;50.936;4.654;2023-05-14T04:52:47;13.70;99.90
26336;DHT22;14047;50.936;4.654;2023-05-14T04:55:13;13.80;99.90
26336;DHT22;14047;50.936;4.654;2023-05-14T04:57:39;13.90;99.90
26336;DHT22;14047;50.936;4.654;2023-05-14T05:00:05;13.90;99.90
26336;DHT22;14047;50.936;4.654;2023-05-14T05:02:32;13.90;99.90
26336;DHT22;14047;50.936;4.654;2023-05-14T05:04:59;13.90;99.90
26336;DHT22;14047;50.936;4.654;2023-05-14T05:07:25;13.80;99.90
26336;DHT22;14047;50.936;4.654;2023-05-14T05:09:51;13.90;99.90
26336;DHT22;14047;50.936;4.654;2023-05-14T05:12:17;14.00;99.90
26336;DHT22;14047;50.936;4.654;2023-05-14T05:14:43;14.10;99.90
26336;DHT22;14047;50.936;4.654;2023-05-14T05:17:09;14.20;99.90
26336;DHT22;14047;50.936;4.654;2023-05-14T05:19:35;14.30;99.90
26336;DHT22;14047;50.936;4.654;2023-05-14T05:22:01;14.20;99.90
26336;DHT22;14047;50.936;4.654;2023-05-14T05:24:27;14.20;99.90
26336;DHT22;14047;50.936;4.654;2023-05-14T05:26:52;14.00;99.90
26336;DHT22;14047;50.936;4.654;2023-05-14T05:29:20;14.00;99.90
26336;DHT22;14047;50.936;4.654;2023-05-14T05:31:47;13.90;99.90
26336;DHT22;14047;50.936;4.654;2023-05-14T05:34:13;13.90;99.90
26336;DHT22;14047;50.936;4.654;2023-05-14T05:36:39;14.00;99.90
26336;DHT22;14047;50.936;4.654;2023-05-14T05:39:05;14.00;99.90
26336;DHT22;14047;50.936;4.654;2023-05-14T05:41:31;14.00;99.90
26336;DHT22;14047;50.936;4.654;2023-05-14T05:43:57;14.10;99.90
26336;DHT22;14047;50.936;4.654;2023-05-14T05:46:23;14.20;99.90
26336;DHT22;14047;50.936;4.654;2023-05-14T05:48:49;14.10;99.90
26336;DHT22;14047;50.936;4.654;2023-05-14T05:51:15;14.30;99.90
26336;DHT22;14047;50.936;4.654;2023-05-14T05:53:41;14.40;99.90
26336;DHT22;14047;50.936;4.654;2023-05-14T05:56:07;14.40;99.90
26336;DHT22;14047;50.936;4.654;2023-05-14T05:58:33;14.40;99.90
26336;DHT22;14047;50.936;4.654;2023-05-14T06:00:59;14.50;99.90
26336;DHT22;14047;50.936;4.654;2023-05-14T06:03:24;14.70;99.90
26336;DHT22;14047;50.936;4.654;2023-05-14T06:05:51;14.60;99.90
26336;DHT22;14047;50.936;4.654;2023-05-14T06:08:17;14.80;99.90
26336;DHT22;14047;50.936;4.654;2023-05-14T06:10:43;14.70;99.90
26336;DHT22;14047;50.936;4.654;2023-05-14T06:13:11;14.80;99.90
26336;DHT22;14047;50.936;4.654;2023-05-14T06:15:37;14.70;99.90
26336;DHT22;14047;50.936;4.654;2023-05-14T06:18:03;14.70;99.90
26336;DHT22;14047;50.936;4.654;2023-05-14T06:20:28;14.80;99.90
26336;DHT22;14047;50.936;4.654;2023-05-14T06:22:54;14.80;99.90
26336;DHT22;14047;50.936;4.654;2023-05-14T06:25:20;14.90;99.90
26336;DHT22;14047;50.936;4.654;2023-05-14T06:27:46;14.90;99.90
26336;DHT22;14047;50.936;4.654;2023-05-14T06:30:13;14.90;99.90
26336;DHT22;14047;50.936;4.654;2023-05-14T06:32:39;14.80;99.90
26336;DHT22;14047;50.936;4.654;2023-05-14T06:35:05;14.70;99.90
26336;DHT22;14047;50.936;4.654;2023-05-14T06:37:31;14.70;99.90
26336;DHT22;14047;50.936;4.654;2023-05-14T06:39:57;14.80;99.90
26336;DHT22;14047;50.936;4.654;2023-05-14T06:42:23;14.70;99.90
26336;DHT22;14047;50.936;4.654;2023-05-14T06:44:49;14.70;99.90
26336;DHT22;14047;50.936;4.654;2023-05-14T06:47:15;14.70;99.90
26336;DHT22;14047;50.936;4.654;2023-05-14T06:49:41;14.70;99.90
26336;DHT22;14047;50.936;4.654;2023-05-14T06:52:07;14.70;99.90
26336;DHT22;14047;50.936;4.654;2023-05-14T06:54:33;14.70;99.90
26336;DHT22;14047;50.936;4.654;2023-05-14T06:56:59;14.70;99.90
26336;DHT22;14047;50.936;4.654;2023-05-14T06:59:25;14.70;99.90
26336;DHT22;14047;50.936;4.654;2023-05-14T07:01:51;14.60;99.90
26336;DHT22;14047;50.936;4.654;2023-05-14T07:04:17;14.60;99.90
26336;DHT22;14047;50.936;4.654;2023-05-14T07:06:43;14.60;99.90
26336;DHT22;14047;50.936;4.654;2023-05-14T07:09:09;14.60;99.90
26336;DHT22;14047;50.936;4.654;2023-05-14T07:11:36;14.60;99.90
26336;DHT22;14047;50.936;4.654;2023-05-14T07:14:01;14.60;99.90
26336;DHT22;14047;50.936;4.654;2023-05-14T07:16:28;14.60;99.90
26336;DHT22;14047;50.936;4.654;2023-05-14T07:18:54;14.70;99.90
26336;DHT22;14047;50.936;4.654;2023-05-14T07:21:20;14.70;99.90
26336;DHT22;14047;50.936;4.654;2023-05-14T07:23:46;14.80;99.90
26336;DHT22;14047;50.936;4.654;2023-05-14T07:26:12;14.70;99.90
26336;DHT22;14047;50.936;4.654;2023-05-14T07:28:38;14.80;99.90
26336;DHT22;14047;50.936;4.654;2023-05-14T07:31:05;14.50;99.90
26336;DHT22;14047;50.936;4.654;2023-05-14T07:33:34;14.50;99.90
26336;DHT22;14047;50.936;4.654;2023-05-14T07:36:01;14.70;99.90
26336;DHT22;14047;50.936;4.654;2023-05-14T07:38:27;14.50;99.90
26336;DHT22;14047;50.936;4.654;2023-05-14T07:40:53;14.30;99.90
26336;DHT22;14047;50.936;4.654;2023-05-14T07:43:19;14.40;99.90
26336;DHT22;14047;50.936;4.654;2023-05-14T07:45:45;14.60;99.90
26336;DHT22;14047;50.936;4.654;2023-05-14T07:48:11;14.70;99.90
26336;DHT22;14047;50.936;4.654;2023-05-14T07:50:37;14.90;99.90
26336;DHT22;14047;50.936;4.654;2023-05-14T07:53:04;15.00;99.90
26336;DHT22;14047;50.936;4.654;2023-05-14T07:55:30;15.10;99.90
26336;DHT22;14047;50.936;4.654;2023-05-14T07:57:56;15.30;99.90
26336;DHT22;14047;50.936;4.654;2023-05-14T08:00:22;15.40;99.90
26336;DHT22;14047;50.936;4.654;2023-05-14T08:02:48;15.50;99.90
26336;DHT22;14047;50.936;4.654;2023-05-14T08:05:14;15.60;99.90
26336;DHT22;14047;50.936;4.654;2023-05-14T08:07:41;15.60;99.90
26336;DHT22;14047;50.936;4.654;2023-05-14T08:10:07;15.20;99.90
26336;DHT22;14047;50.936;4.654;2023-05-14T08:12:36;15.40;99.90
26336;DHT22;14047;50.936;4.654;2023-05-14T08:15:02;15.60;99.90
26336;DHT22;14047;50.936;4.654;2023-05-14T08:17:28;15.50;99.90
26336;DHT22;14047;50.936;4.654;2023-05-14T08:19:54;15.80;99.90
26336;DHT22;14047;50.936;4.654;2023-05-14T08:22:20;16.10;99.90
26336;DHT22;14047;50.936;4.654;2023-05-14T08:24:46;16.50;99.90
26336;DHT22;14047;50.936;4.654;2023-05-14T08:27:12;16.70;99.90
26336;DHT22;14047;50.936;4.654;2023-05-14T08:29:38;16.60;99.90
26336;DHT22;14047;50.936;4.654;2023-05-14T08:32:08;16.70;99.90
26336;DHT22;14047;50.936;4.654;2023-05-14T08:34:34;16.70;99.90
26336;DHT22;14047;50.936;4.654;2023-05-14T08:37:00;16.50;99.90
26336;DHT22;14047;50.936;4.654;2023-05-14T08:39:26;16.60;99.90
26336;DHT22;14047;50.936;4.654;2023-05-14T08:41:52;16.60;99.90
26336;DHT22;14047;50.936;4.654;2023-05-14T08:46:53;16.90;99.90
26336;DHT22;14047;50.936;4.654;2023-05-14T08:49:41;17.30;99.90
26336;DHT22;14047;50.936;4.654;2023-05-14T08:52:10;17.40;99.90
26336;DHT22;14047;50.936;4.654;2023-05-14T08:54:37;17.30;99.90
26336;DHT22;14047;50.936;4.654;2023-05-14T08:57:05;17.40;99.90
26336;DHT22;14047;50.936;4.654;2023-05-14T08:59:33;17.50;99.90
26336;DHT22;14047;50.936;4.654;2023-05-14T09:02:01;17.40;99.90
26336;DHT22;14047;50.936;4.654;2023-05-14T09:04:28;17.40;99.90
26336;DHT22;14047;50.936;4.654;2023-05-14T09:06:55;17.30;99.90
26336;DHT22;14047;50.936;4.654;2023-05-14T09:09:21;17.50;99.90
26336;DHT22;14047;50.936;4.654;2023-05-14T09:11:48;17.50;99.90
26336;DHT22;14047;50.936;4.654;2023-05-14T09:14:15;17.60;99.90
26336;DHT22;14047;50.936;4.654;2023-05-14T09:16:44;17.60;99.90
26336;DHT22;14047;50.936;4.654;2023-05-14T09:19:11;17.60;99.90
26336;DHT22;14047;50.936;4.654;2023-05-14T09:21:37;17.90;99.90
26336;DHT22;14047;50.936;4.654;2023-05-14T09:24:03;18.00;99.90
26336;DHT22;14047;50.936;4.654;2023-05-14T09:26:31;18.10;99.90
26336;DHT22;14047;50.936;4.654;2023-05-14T09:28:58;18.10;99.90
26336;DHT22;14047;50.936;4.654;2023-05-14T09:31:31;18.30;99.90
26336;DHT22;14047;50.936;4.654;2023-05-14T09:33:58;18.60;99.90
26336;DHT22;14047;50.936;4.654;2023-05-14T09:36:25;18.70;99.90
26336;DHT22;14047;50.936;4.654;2023-05-14T09:38:55;18.50;99.90
26336;DHT22;14047;50.936;4.654;2023-05-14T09:41:21;18.60;99.90
26336;DHT22;14047;50.936;4.654;2023-05-14T09:43:49;18.60;99.90
26336;DHT22;14047;50.936;4.654;2023-05-14T09:46:15;18.60;99.90
26336;DHT22;14047;50.936;4.654;2023-05-14T09:48:41;18.80;99.90
26336;DHT22;14047;50.936;4.654;2023-05-14T09:51:09;18.80;99.90
26336;DHT22;14047;50.936;4.654;2023-05-14T09:53:36;18.60;99.90
26336;DHT22;14047;50.936;4.654;2023-05-14T09:56:02;18.80;99.90
26336;DHT22;14047;50.936;4.654;2023-05-14T09:58:28;18.80;99.90
26336;DHT22;14047;50.936;4.654;2023-05-14T10:00:56;18.90;99.90
26336;DHT22;14047;50.936;4.654;2023-05-14T10:03:24;18.80;99.90
26336;DHT22;14047;50.936;4.654;2023-05-14T10:05:52;18.70;99.90
26336;DHT22;14047;50.936;4.654;2023-05-14T10:08:24;18.70;99.90
26336;DHT22;14047;50.936;4.654;2023-05-14T10:10:53;18.70;99.90
26336;DHT22;14047;50.936;4.654;2023-05-14T10:13:22;18.80;99.90
26336;DHT22;14047;50.936;4.654;2023-05-14T10:18:39;18.70;99.90
26336;DHT22;14047;50.936;4.654;2023-05-14T10:21:07;19.00;99.90
26336;DHT22;14047;50.936;4.654;2023-05-14T10:23:33;19.20;99.90
26336;DHT22;14047;50.936;4.654;2023-05-14T10:26:02;19.00;99.90
26336;DHT22;14047;50.936;4.654;2023-05-14T10:28:30;19.00;99.90
26336;DHT22;14047;50.936;4.654;2023-05-14T10:30:56;18.70;99.90
26336;DHT22;14047;50.936;4.654;2023-05-14T10:33:23;18.50;99.90
26336;DHT22;14047;50.936;4.654;2023-05-14T10:38:17;18.60;99.90
26336;DHT22;14047;50.936;4.654;2023-05-14T10:40:46;18.60;99.90
26336;DHT22;14047;50.936;4.654;2023-05-14T10:43:13;18.70;99.90
26336;DHT22;14047;50.936;4.654;2023-05-14T10:45:43;18.90;99.90
26336;DHT22;14047;50.936;4.654;2023-05-14T10:48:09;18.80;99.90
26336;DHT22;14047;50.936;4.654;2023-05-14T10:50:35;18.90;99.90
26336;DHT22;14047;50.936;4.654;2023-05-14T10:53:01;19.10;99.90
26336;DHT22;14047;50.936;4.654;2023-05-14T10:55:27;19.30;99.90
26336;DHT22;14047;50.936;4.654;2023-05-14T10:57:53;19.40;99.90
26336;DHT22;14047;50.936;4.654;2023-05-14T11:00:19;19.50;99.90
26336;DHT22;14047;50.936;4.654;2023-05-14T11:02:54;19.60;99.90
26336;DHT22;14047;50.936;4.654;2023-05-14T11:05:21;19.50;99.90
26336;DHT22;14047;50.936;4.654;2023-05-14T11:07:48;19.60;99.90
26336;DHT22;14047;50.936;4.654;2023-05-14T11:10:16;19.70;99.90
26336;DHT22;14047;50.936;4.654;2023-05-14T11:12:47;19.50;99.90
26336;DHT22;14047;50.936;4.654;2023-05-14T11:15:18;19.70;99.90
26336;DHT22;14047;50.936;4.654;2023-05-14T11:17:45;19.80;99.90
26336;DHT22;14047;50.936;4.654;2023-05-14T11:20:12;20.00;99.90
26336;DHT22;14047;50.936;4.654;2023-05-14T11:22:39;19.90;99.90
26336;DHT22;14047;50.936;4.654;2023-05-14T11:25:06;19.50;99.90
26336;DHT22;14047;50.936;4.654;2023-05-14T11:27:37;19.10;99.90
26336;DHT22;14047;50.936;4.654;2023-05-14T11:30:04;19.30;99.90
26336;DHT22;14047;50.936;4.654;2023-05-14T11:32:32;19.40;99.90
26336;DHT22;14047;50.936;4.654;2023-05-14T11:34:59;19.10;99.90
26336;DHT22;14047;50.936;4.654;2023-05-14T11:37:25;19.40;99.90
26336;DHT22;14047;50.936;4.654;2023-05-14T11:39:53;19.50;99.90
26336;DHT22;14047;50.936;4.654;2023-05-14T11:42:20;19.30;99.90
26336;DHT22;14047;50.936;4.654;2023-05-14T11:44:50;19.50;99.90
26336;DHT22;14047;50.936;4.654;2023-05-14T11:47:18;19.70;99.90
26336;DHT22;14047;50.936;4.654;2023-05-14T11:49:48;19.90;99.90
26336;DHT22;14047;50.936;4.654;2023-05-14T11:52:23;20.20;99.90
26336;DHT22;14047;50.936;4.654;2023-05-14T11:54:52;20.40;99.90
26336;DHT22;14047;50.936;4.654;2023-05-14T11:57:19;20.60;99.90
26336;DHT22;14047;50.936;4.654;2023-05-14T11:59:46;20.60;99.90
26336;DHT22;14047;50.936;4.654;2023-05-14T12:02:14;20.70;99.90
26336;DHT22;14047;50.936;4.654;2023-05-14T12:04:41;20.80;99.90
26336;DHT22;14047;50.936;4.654;2023-05-14T12:07:11;20.80;99.90
26336;DHT22;14047;50.936;4.654;2023-05-14T12:09:44;21.00;99.90
26336;DHT22;14047;50.936;4.654;2023-05-14T12:12:16;21.20;99.90
26336;DHT22;14047;50.936;4.654;2023-05-14T12:14:43;21.10;99.90
26336;DHT22;14047;50.936;4.654;2023-05-14T12:17:15;21.10;99.90
26336;DHT22;14047;50.936;4.654;2023-05-14T12:19:42;21.00;99.90
26336;DHT22;14047;50.936;4.654;2023-05-14T12:22:10;21.30;99.90
26336;DHT22;14047;50.936;4.654;2023-05-14T12:24:36;21.50;99.90
26336;DHT22;14047;50.936;4.654;2023-05-14T12:27:08;21.50;99.90
26336;DHT22;14047;50.936;4.654;2023-05-14T12:29:35;21.60;99.90
26336;DHT22;14047;50.936;4.654;2023-05-14T12:32:02;21.90;99.90
26336;DHT22;14047;50.936;4.654;2023-05-14T12:34:33;21.80;99.90
26336;DHT22;14047;50.936;4.654;2023-05-14T12:36:59;21.70;99.90
26336;DHT22;14047;50.936;4.654;2023-05-14T12:39:25;21.80;99.90
26336;DHT22;14047;50.936;4.654;2023-05-14T12:41:50;21.80;99.90
26336;DHT22;14047;50.936;4.654;2023-05-14T12:44:16;22.00;99.90
26336;DHT22;14047;50.936;4.654;2023-05-14T12:46:43;22.00;99.90
26336;DHT22;14047;50.936;4.654;2023-05-14T12:49:09;22.00;99.90
26336;DHT22;14047;50.936;4.654;2023-05-14T12:51:35;22.00;99.90
26336;DHT22;14047;50.936;4.654;2023-05-14T12:54:01;22.10;99.90
26336;DHT22;14047;50.936;4.654;2023-05-14T12:56:27;22.30;99.90
26336;DHT22;14047;50.936;4.654;2023-05-14T12:58:55;22.40;99.90
26336;DHT22;14047;50.936;4.654;2023-05-14T13:01:22;22.40;99.90
26336;DHT22;14047;50.936;4.654;2023-05-14T13:03:48;22.40;99.90
26336;DHT22;14047;50.936;4.654;2023-05-14T13:06:14;22.30;99.90
26336;DHT22;14047;50.936;4.654;2023-05-14T13:08:40;22.20;99.90
26336;DHT22;14047;50.936;4.654;2023-05-14T13:11:06;22.60;99.90
26336;DHT22;14047;50.936;4.654;2023-05-14T13:13:32;22.90;99.90
26336;DHT22;14047;50.936;4.654;2023-05-14T13:15:58;23.00;99.90
26336;DHT22;14047;50.936;4.654;2023-05-14T13:18:25;23.30;99.90
26336;DHT22;14047;50.936;4.654;2023-05-14T13:20:51;23.30;99.90
26336;DHT22;14047;50.936;4.654;2023-05-14T13:23:17;23.50;99.90
26336;DHT22;14047;50.936;4.654;2023-05-14T13:25:43;23.90;99.90
26336;DHT22;14047;50.936;4.654;2023-05-14T13:28:09;23.90;99.90
26336;DHT22;14047;50.936;4.654;2023-05-14T13:30:35;23.70;99.90
26336;DHT22;14047;50.936;4.654;2023-05-14T13:33:01;23.50;99.90
26336;DHT22;14047;50.936;4.654;2023-05-14T13:35:27;23.60;99.90
26336;DHT22;14047;50.936;4.654;2023-05-14T13:37:53;23.80;99.90
26336;DHT22;14047;50.936;4.654;2023-05-14T13:40:19;24.00;99.90
26336;DHT22;14047;50.936;4.654;2023-05-14T13:42:45;24.40;99.90
26336;DHT22;14047;50.936;4.654;2023-05-14T13:45:11;24.50;99.90
26336;DHT22;14047;50.936;4.654;2023-05-14T13:47:37;24.30;99.90
26336;DHT22;14047;50.936;4.654;2023-05-14T13:50:04;24.40;99.90
26336;DHT22;14047;50.936;4.654;2023-05-14T13:52:30;24.30;99.90
26336;DHT22;14047;50.936;4.654;2023-05-14T13:54:56;24.10;99.90
26336;DHT22;14047;50.936;4.654;2023-05-14T13:57:22;24.30;99.90
26336;DHT22;14047;50.936;4.654;2023-05-14T13:59:48;24.20;99.90
26336;DHT22;14047;50.936;4.654;2023-05-14T14:02:15;24.40;99.90
26336;DHT22;14047;50.936;4.654;2023-05-14T14:04:41;24.20;99.90
26336;DHT22;14047;50.936;4.654;2023-05-14T14:07:06;24.10;99.90
26336;DHT22;14047;50.936;4.654;2023-05-14T14:09:33;24.30;99.90
26336;DHT22;14047;50.936;4.654;2023-05-14T14:12:01;24.60;99.90
26336;DHT22;14047;50.936;4.654;2023-05-14T14:14:27;24.50;99.90
26336;DHT22;14047;50.936;4.654;2023-05-14T14:16:53;24.80;99.90
26336;DHT22;14047;50.936;4.654;2023-05-14T14:19:19;24.80;99.90
26336;DHT22;14047;50.936;4.654;2023-05-14T14:21:45;24.70;99.90
26336;DHT22;14047;50.936;4.654;2023-05-14T14:24:11;24.50;99.90
26336;DHT22;14047;50.936;4.654;2023-05-14T14:26:37;25.00;99.90
26336;DHT22;14047;50.936;4.654;2023-05-14T14:29:03;25.20;99.90
26336;DHT22;14047;50.936;4.654;2023-05-14T14:31:29;25.10;99.90
26336;DHT22;14047;50.936;4.654;2023-05-14T14:33:55;25.00;99.90
26336;DHT22;14047;50.936;4.654;2023-05-14T14:36:21;24.80;99.90
26336;DHT22;14047;50.936;4.654;2023-05-14T14:38:47;24.80;99.90
26336;DHT22;14047;50.936;4.654;2023-05-14T14:41:13;25.00;99.90
26336;DHT22;14047;50.936;4.654;2023-05-14T14:43:39;25.10;99.90
26336;DHT22;14047;50.936;4.654;2023-05-14T14:46:05;24.90;99.90
26336;DHT22;14047;50.936;4.654;2023-05-14T14:48:34;24.50;99.90
26336;DHT22;14047;50.936;4.654;2023-05-14T14:51:07;24.50;99.90
26336;DHT22;14047;50.936;4.654;2023-05-14T14:53:34;24.50;99.90
26336;DHT22;14047;50.936;4.654;2023-05-14T14:56:01;24.60;99.90
26336;DHT22;14047;50.936;4.654;2023-05-14T14:58:27;24.70;99.90
26336;DHT22;14047;50.936;4.654;2023-05-14T15:00:54;24.70;99.90
26336;DHT22;14047;50.936;4.654;2023-05-14T15:03:21;24.80;99.90
26336;DHT22;14047;50.936;4.654;2023-05-14T15:05:48;24.60;99.90
26336;DHT22;14047;50.936;4.654;2023-05-14T15:08:14;24.80;99.90
26336;DHT22;14047;50.936;4.654;2023-05-14T15:10:40;24.30;99.90
26336;DHT22;14047;50.936;4.654;2023-05-14T15:13:07;24.10;99.90
26336;DHT22;14047;50.936;4.654;2023-05-14T15:15:34;24.20;99.90
26336;DHT22;14047;50.936;4.654;2023-05-14T15:18:01;24.00;99.90
26336;DHT22;14047;50.936;4.654;2023-05-14T15:20:27;23.80;99.90
26336;DHT22;14047;50.936;4.654;2023-05-14T15:22:54;23.10;99.90
26336;DHT22;14047;50.936;4.654;2023-05-14T15:25:20;22.60;99.90
26336;DHT22;14047;50.936;4.654;2023-05-14T15:27:47;22.40;99.90
26336;DHT22;14047;50.936;4.654;2023-05-14T15:30:13;22.40;99.90
26336;DHT22;14047;50.936;4.654;2023-05-14T15:32:40;22.40;99.90
26336;DHT22;14047;50.936;4.654;2023-05-14T15:35:07;22.30;99.90
26336;DHT22;14047;50.936;4.654;2023-05-14T15:37:43;22.40;99.90
26336;DHT22;14047;50.936;4.654;2023-05-14T15:40:09;22.30;99.90
26336;DHT22;14047;50.936;4.654;2023-05-14T15:42:37;22.30;99.90
26336;DHT22;14047;50.936;4.654;2023-05-14T15:45:03;22.30;99.90